Time;durP1;ratioP1;P1;durP2;ratioP2;P2;SDS_P1;SDS_P2;PMS_P1;PMS_P2;Temp;Humidity;BMP_temperature;BMP_pressure;BME280_temperature;BME280_humidity;BME280_pressure;Samples;Min_cycle;Max_cycle;Signal;HPM_P1;HPM_P2
2024/01/18 00:01:15;;;;;;;0.60;0.60;;;;;;;;;;5022041;28;20029;-86
2024/01/18 00:03:40;;;;;;;0.82;0.73;;;;;;;;;;5014169;28;20072;-86
2024/01/18 00:06:08;;;;;;;0.55;0.55;;;;;;;;;;5016592;28;20116;-86
2024/01/18 00:08:33;;;;;;;0.40;0.40;;;;;;;;;;5013460;28;20026;-86
2024/01/18 00:10:59;;;;;;;0.30;0.30;;;;;;;;;;5014129;28;20034;-86
2024/01/18 00:13:25;;;;;;;0.32;0.32;;;;;;;;;;5011198;28;20037;-86
2024/01/18 00:15:50;;;;;;;0.20;0.20;;;;;;;;;;5013633;28;20082;-85
2024/01/18 00:18:15;;;;;;;0.30;0.30;;;;;;;;;;5015046;28;20079;-85
2024/01/18 00:20:41;;;;;;;3.33;0.45;;;;;;;;;;5014692;28;20316;-86
2024/01/18 00:23:06;;;;;;;0.50;0.43;;;;;;;;;;5014409;28;20480;-87
2024/01/18 00:25:31;;;;;;;1.35;0.55;;;;;;;;;;5014605;28;20044;-85
2024/01/18 00:27:57;;;;;;;2.05;0.50;;;;;;;;;;5014539;28;20101;-86
2024/01/18 00:30:22;;;;;;;0.50;0.50;;;;;;;;;;5013257;28;20071;-87
2024/01/18 00:32:48;;;;;;;0.20;0.20;;;;;;;;;;5012939;28;20092;-85
2024/01/18 00:35:13;;;;;;;0.47;0.47;;;;;;;;;;5016141;28;20026;-85
2024/01/18 00:37:38;;;;;;;0.65;0.60;;;;;;;;;;5022733;28;20487;-86
2024/01/18 00:40:04;;;;;;;0.60;0.60;;;;;;;;;;5021759;28;20033;-87
2024/01/18 00:42:30;;;;;;;0.47;0.47;;;;;;;;;;5015014;28;20033;-87
2024/01/18 00:44:55;;;;;;;0.40;0.40;;;;;;;;;;5023995;28;20081;-87
2024/01/18 00:47:20;;;;;;;0.40;0.40;;;;;;;;;;5024581;28;20036;-87
2024/01/18 00:49:45;;;;;;;0.70;0.40;;;;;;;;;;5020135;28;20034;-86
2024/01/18 00:52:11;;;;;;;0.45;0.45;;;;;;;;;;5021458;28;20045;-86
2024/01/18 00:54:36;;;;;;;0.55;0.50;;;;;;;;;;5022589;28;20025;-86
2024/01/18 00:57:01;;;;;;;0.63;0.63;;;;;;;;;;5024832;28;20049;-86
2024/01/18 00:59:27;;;;;;;0.50;0.50;;;;;;;;;;5023781;28;20025;-86
2024/01/18 01:01:53;;;;;;;0.40;0.40;;;;;;;;;;5015341;28;20045;-86
2024/01/18 01:04:18;;;;;;;0.60;0.60;;;;;;;;;;5017661;28;20026;-86
2024/01/18 01:06:43;;;;;;;0.47;0.47;;;;;;;;;;5019322;28;20025;-85
2024/01/18 01:09:09;;;;;;;0.65;0.65;;;;;;;;;;5016041;28;20470;-85
2024/01/18 01:11:34;;;;;;;0.45;0.45;;;;;;;;;;5017640;28;20022;-86
2024/01/18 01:14:00;;;;;;;0.60;0.60;;;;;;;;;;5019084;28;20022;-86
2024/01/18 01:16:25;;;;;;;0.30;0.30;;;;;;;;;;5017034;28;20075;-86
2024/01/18 01:18:50;;;;;;;0.25;0.25;;;;;;;;;;5019109;28;20024;-86
2024/01/18 01:21:15;;;;;;;0.55;0.55;;;;;;;;;;5018497;28;20048;-86
2024/01/18 01:23:44;;;;;;;1.48;0.50;;;;;;;;;;5010503;28;20185;-86
2024/01/18 01:26:09;;;;;;;0.40;0.40;;;;;;;;;;5017577;28;20575;-85
2024/01/18 01:28:34;;;;;;;0.55;0.55;;;;;;;;;;5017502;28;20484;-85
2024/01/18 01:31:00;;;;;;;1.40;0.60;;;;;;;;;;5018843;28;20021;-85
2024/01/18 01:33:26;;;;;;;0.90;0.63;;;;;;;;;;5012186;28;20045;-87
2024/01/18 01:35:51;;;;;;;4.72;0.40;;;;;;;;;;5017996;28;20022;-87
2024/01/18 01:38:17;;;;;;;0.38;0.38;;;;;;;;;;5020655;28;20036;-87
2024/01/18 01:40:42;;;;;;;0.28;0.28;;;;;;;;;;5026030;28;20025;-86
2024/01/18 01:43:09;;;;;;;1.48;0.70;;;;;;;;;;5019747;28;20037;-87
2024/01/18 01:45:34;;;;;;;0.63;0.63;;;;;;;;;;5015464;28;20105;-87
2024/01/18 01:47:59;;;;;;;0.50;0.50;;;;;;;;;;5019248;28;20045;-87
2024/01/18 01:50:25;;;;;;;0.47;0.47;;;;;;;;;;5016501;28;20034;-86
2024/01/18 01:52:50;;;;;;;0.75;0.47;;;;;;;;;;5016836;28;20631;-86
2024/01/18 01:55:16;;;;;;;1.10;0.30;;;;;;;;;;5017258;28;20392;-87
2024/01/18 01:57:47;;;;;;;0.35;0.35;;;;;;;;;;5016947;28;20092;-86
2024/01/18 02:00:14;;;;;;;1.05;0.73;;;;;;;;;;5015023;28;20121;-85
2024/01/18 02:02:41;;;;;;;0.65;0.65;;;;;;;;;;5015959;28;20067;-86
2024/01/18 02:05:06;;;;;;;0.70;0.22;;;;;;;;;;5017687;28;20029;-86
2024/01/18 02:07:35;;;;;;;0.57;0.57;;;;;;;;;;5009069;28;20037;-87
2024/01/18 02:10:00;;;;;;;0.57;0.50;;;;;;;;;;5015830;28;20484;-87
2024/01/18 02:12:26;;;;;;;5.45;0.82;;;;;;;;;;5013990;28;20044;-87
2024/01/18 02:14:51;;;;;;;0.65;0.65;;;;;;;;;;5016280;28;20100;-87
2024/01/18 02:17:17;;;;;;;0.40;0.40;;;;;;;;;;5021474;28;20030;-87
2024/01/18 02:19:42;;;;;;;0.73;0.25;;;;;;;;;;5016633;28;20107;-86
2024/01/18 02:22:09;;;;;;;0.45;0.45;;;;;;;;;;5016357;28;20014;-86
2024/01/18 02:24:42;;;;;;;0.50;0.50;;;;;;;;;;5028682;28;20526;-86
2024/01/18 02:27:07;;;;;;;0.45;0.30;;;;;;;;;;5017475;28;20021;-86
2024/01/18 02:29:32;;;;;;;0.63;0.63;;;;;;;;;;5008290;28;20284;-86
2024/01/18 02:31:58;;;;;;;0.50;0.50;;;;;;;;;;5014728;28;20451;-87
2024/01/18 02:34:23;;;;;;;0.38;0.38;;;;;;;;;;5014919;28;20092;-86
2024/01/18 02:36:49;;;;;;;0.70;0.55;;;;;;;;;;5014774;28;20030;-85
2024/01/18 02:39:14;;;;;;;0.55;0.52;;;;;;;;;;5016289;28;20094;-88
2024/01/18 02:41:41;;;;;;;1.10;0.85;;;;;;;;;;5015679;28;20109;-86
2024/01/18 02:44:07;;;;;;;0.60;0.60;;;;;;;;;;5016126;28;20025;-86
2024/01/18 02:46:33;;;;;;;0.50;0.50;;;;;;;;;;5015476;28;20024;-86
2024/01/18 02:48:59;;;;;;;0.93;0.93;;;;;;;;;;5014664;28;20022;-85
2024/01/18 02:51:24;;;;;;;2.70;1.40;;;;;;;;;;5015359;28;20030;-85
2024/01/18 02:53:50;;;;;;;4.60;2.22;;;;;;;;;;5015592;28;20040;-86
2024/01/18 02:56:15;;;;;;;2.53;1.30;;;;;;;;;;5016566;28;20439;-85
2024/01/18 02:58:40;;;;;;;1.23;1.17;;;;;;;;;;5015604;28;20091;-84
2024/01/18 03:01:06;;;;;;;1.98;1.85;;;;;;;;;;5016467;28;20480;-85
2024/01/18 03:03:34;;;;;;;1.80;1.70;;;;;;;;;;5014693;28;20542;-85
2024/01/18 03:06:00;;;;;;;4.40;2.42;;;;;;;;;;5014745;28;20025;-86
2024/01/18 03:08:25;;;;;;;1.55;1.45;;;;;;;;;;5016614;28;20109;-85
2024/01/18 03:10:50;;;;;;;2.75;1.77;;;;;;;;;;5016695;28;20061;-88
2024/01/18 03:13:16;;;;;;;2.33;2.13;;;;;;;;;;5013818;28;20044;-84
2024/01/18 03:15:41;;;;;;;1.77;1.65;;;;;;;;;;5017107;28;20030;-86
2024/01/18 03:18:06;;;;;;;1.08;1.08;;;;;;;;;;5015315;28;20036;-87
2024/01/18 03:20:32;;;;;;;2.45;1.75;;;;;;;;;;5015965;28;20026;-86
2024/01/18 03:22:57;;;;;;;1.30;1.30;;;;;;;;;;5005888;28;20046;-87
2024/01/18 03:25:23;;;;;;;1.73;1.48;;;;;;;;;;5017695;28;20026;-88
2024/01/18 03:27:48;;;;;;;2.05;1.70;;;;;;;;;;5015401;28;20289;-87
2024/01/18 03:30:13;;;;;;;1.83;1.70;;;;;;;;;;5015322;28;20036;-86
2024/01/18 03:32:39;;;;;;;1.58;1.48;;;;;;;;;;5014627;28;20026;-87
2024/01/18 03:35:06;;;;;;;2.75;1.95;;;;;;;;;;5013123;28;20065;-86
2024/01/18 03:37:31;;;;;;;1.80;1.70;;;;;;;;;;5013722;28;20017;-86
2024/01/18 03:39:56;;;;;;;1.38;1.27;;;;;;;;;;5015003;28;20518;-86
2024/01/18 03:42:22;;;;;;;1.90;1.65;;;;;;;;;;5012041;28;20033;-86
2024/01/18 03:44:47;;;;;;;1.65;1.55;;;;;;;;;;5013732;28;20128;-86
2024/01/18 03:47:12;;;;;;;1.35;1.25;;;;;;;;;;5013616;28;20113;-88
2024/01/18 03:49:41;;;;;;;1.42;1.33;;;;;;;;;;5014344;28;20022;-86
2024/01/18 03:52:06;;;;;;;1.92;1.83;;;;;;;;;;5011960;28;20100;-87
2024/01/18 03:54:31;;;;;;;1.90;1.70;;;;;;;;;;5014607;28;20424;-87
2024/01/18 03:56:57;;;;;;;1.70;1.60;;;;;;;;;;5013351;28;20026;-86
2024/01/18 03:59:23;;;;;;;1.70;1.60;;;;;;;;;;5014829;28;20053;-87
2024/01/18 04:01:49;;;;;;;1.92;1.40;;;;;;;;;;5014002;28;20505;-87
2024/01/18 04:04:14;;;;;;;2.05;1.85;;;;;;;;;;5013746;28;20030;-86
2024/01/18 04:06:40;;;;;;;1.58;1.48;;;;;;;;;;5014529;28;20018;-86
2024/01/18 04:09:06;;;;;;;1.88;1.77;;;;;;;;;;5015472;28;20041;-87
2024/01/18 04:11:32;;;;;;;2.10;1.90;;;;;;;;;;5013246;28;20044;-88
2024/01/18 04:13:57;;;;;;;2.10;1.90;;;;;;;;;;5013435;28;20030;-85
2024/01/18 04:16:22;;;;;;;2.05;1.85;;;;;;;;;;5013854;28;20030;-86
2024/01/18 04:18:47;;;;;;;2.10;1.85;;;;;;;;;;5014934;28;20049;-86
2024/01/18 04:21:13;;;;;;;1.83;1.52;;;;;;;;;;5014426;28;20361;-86
2024/01/18 04:23:39;;;;;;;2.20;2.00;;;;;;;;;;5014398;28;20373;-86
2024/01/18 04:26:04;;;;;;;3.00;1.88;;;;;;;;;;5021596;28;20025;-86
2024/01/18 04:28:30;;;;;;;2.10;1.63;;;;;;;;;;5012421;28;20022;-85
2024/01/18 04:30:55;;;;;;;1.80;1.70;;;;;;;;;;5013379;28;20034;-87
2024/01/18 04:33:20;;;;;;;2.20;1.92;;;;;;;;;;5013979;28;20026;-86
2024/01/18 04:35:46;;;;;;;2.83;2.40;;;;;;;;;;5013538;28;20026;-85
2024/01/18 04:38:11;;;;;;;5.50;2.47;;;;;;;;;;5014463;28;20552;-85
2024/01/18 04:40:36;;;;;;;1.75;1.65;;;;;;;;;;5012984;28;20021;-85
2024/01/18 04:43:02;;;;;;;5.10;2.30;;;;;;;;;;5014449;28;20026;-87
2024/01/18 04:45:27;;;;;;;3.22;2.47;;;;;;;;;;5015187;28;20049;-87
2024/01/18 04:47:53;;;;;;;2.65;2.10;;;;;;;;;;5017085;28;20030;-88
2024/01/18 04:50:24;;;;;;;2.47;1.88;;;;;;;;;;5017169;28;20026;-86
2024/01/18 04:52:53;;;;;;;2.47;2.10;;;;;;;;;;5016727;28;20018;-87
2024/01/18 04:55:19;;;;;;;2.00;1.90;;;;;;;;;;5017344;28;20034;-86
2024/01/18 04:57:45;;;;;;;2.67;2.00;;;;;;;;;;5014521;28;20113;-86
2024/01/18 05:00:11;;;;;;;8.65;2.05;;;;;;;;;;5016431;28;20057;-86
2024/01/18 05:02:40;;;;;;;2.78;2.13;;;;;;;;;;5016088;28;20026;-87
2024/01/18 05:05:08;;;;;;;4.00;2.03;;;;;;;;;;5014522;28;20037;-86
2024/01/18 05:07:34;;;;;;;4.30;2.55;;;;;;;;;;5013803;28;20237;-86
2024/01/18 05:09:59;;;;;;;2.72;2.33;;;;;;;;;;5014178;28;20085;-85
2024/01/18 05:12:25;;;;;;;2.47;2.28;;;;;;;;;;5012916;28;20037;-87
2024/01/18 05:14:50;;;;;;;1.92;1.70;;;;;;;;;;5013116;28;20049;-86
2024/01/18 05:17:16;;;;;;;5.63;2.30;;;;;;;;;;5013135;28;20542;-87
2024/01/18 05:19:43;;;;;;;2.25;2.05;;;;;;;;;;5014300;28;20026;-87
2024/01/18 05:22:09;;;;;;;2.03;1.90;;;;;;;;;;5012883;28;20026;-87
2024/01/18 05:24:34;;;;;;;1.85;1.65;;;;;;;;;;5012588;28;20084;-86
2024/01/18 05:26:59;;;;;;;1.65;1.55;;;;;;;;;;5012189;28;20022;-86
2024/01/18 05:29:25;;;;;;;2.15;1.95;;;;;;;;;;5013755;28;20053;-86
2024/01/18 05:31:51;;;;;;;1.70;1.60;;;;;;;;;;5011620;28;20498;-86
2024/01/18 05:34:17;;;;;;;1.70;1.55;;;;;;;;;;5013648;28;20680;-87
2024/01/18 05:36:42;;;;;;;1.90;1.80;;;;;;;;;;5014393;28;20591;-87
2024/01/18 05:39:08;;;;;;;1.70;1.33;;;;;;;;;;5016493;28;20045;-88
2024/01/18 05:41:33;;;;;;;3.20;1.65;;;;;;;;;;5017369;28;20542;-88
2024/01/18 05:43:58;;;;;;;0.80;0.80;;;;;;;;;;5015982;28;20057;-88
2024/01/18 05:46:23;;;;;;;0.40;0.40;;;;;;;;;;5017568;28;20025;-87
2024/01/18 05:48:50;;;;;;;0.80;0.80;;;;;;;;;;5018952;28;20055;-87
2024/01/18 05:51:15;;;;;;;0.63;0.63;;;;;;;;;;5018049;28;20033;-89
2024/01/18 05:53:40;;;;;;;1.35;0.40;;;;;;;;;;5018659;28;20022;-86
2024/01/18 05:56:06;;;;;;;0.50;0.50;;;;;;;;;;5017532;28;20033;-87
2024/01/18 05:58:32;;;;;;;0.68;0.68;;;;;;;;;;5018533;28;20037;-86
2024/01/18 06:00:57;;;;;;;0.43;0.43;;;;;;;;;;5018702;28;20110;-86
2024/01/18 06:03:23;;;;;;;0.50;0.50;;;;;;;;;;5018989;28;20058;-87
2024/01/18 06:05:48;;;;;;;0.73;0.73;;;;;;;;;;5032522;28;20076;-85
2024/01/18 06:08:15;;;;;;;1.65;0.93;;;;;;;;;;5016907;28;20032;-85
2024/01/18 06:10:41;;;;;;;0.98;0.75;;;;;;;;;;5015157;28;20101;-85
2024/01/18 06:13:06;;;;;;;0.40;0.40;;;;;;;;;;5014898;28;20101;-87
2024/01/18 06:15:32;;;;;;;0.30;0.30;;;;;;;;;;5015058;28;20030;-85
2024/01/18 06:18:03;;;;;;;0.20;0.20;;;;;;;;;;5015879;28;20034;-86
2024/01/18 06:20:28;;;;;;;0.30;0.30;;;;;;;;;;5016493;28;20034;-87
2024/01/18 06:22:54;;;;;;;0.73;0.73;;;;;;;;;;5011967;28;20228;-87
2024/01/18 06:25:19;;;;;;;0.85;0.85;;;;;;;;;;5016850;28;20056;-88
2024/01/18 06:27:44;;;;;;;0.35;0.35;;;;;;;;;;5018513;28;20021;-88
2024/01/18 06:30:10;;;;;;;0.95;0.95;;;;;;;;;;5016667;28;20038;-85
2024/01/18 06:32:36;;;;;;;0.30;0.30;;;;;;;;;;5017262;28;20060;-88
2024/01/18 06:35:01;;;;;;;0.60;0.60;;;;;;;;;;5016276;28;20113;-87
2024/01/18 06:37:26;;;;;;;0.40;0.40;;;;;;;;;;5019590;28;20077;-88
2024/01/18 06:39:52;;;;;;;0.35;0.35;;;;;;;;;;5019498;28;20064;-88
2024/01/18 06:42:17;;;;;;;1.02;1.00;;;;;;;;;;5019725;28;20547;-87
2024/01/18 06:44:46;;;;;;;0.98;0.98;;;;;;;;;;5020979;28;20034;-87
2024/01/18 06:47:11;;;;;;;0.82;0.80;;;;;;;;;;5021051;28;20030;-87
2024/01/18 06:49:36;;;;;;;0.50;0.50;;;;;;;;;;5024511;28;20021;-88
2024/01/18 06:52:02;;;;;;;0.63;0.63;;;;;;;;;;5026004;28;20037;-86
2024/01/18 06:54:27;;;;;;;0.65;0.65;;;;;;;;;;5024012;28;20028;-88
2024/01/18 06:56:53;;;;;;;1.02;1.02;;;;;;;;;;5025836;28;20053;-87
2024/01/18 06:59:18;;;;;;;0.95;0.70;;;;;;;;;;5020160;28;20084;-88
2024/01/18 07:01:43;;;;;;;0.88;0.88;;;;;;;;;;5018213;28;20037;-87
2024/01/18 07:04:08;;;;;;;1.17;0.77;;;;;;;;;;5020329;28;20052;-87
2024/01/18 07:06:34;;;;;;;0.88;0.88;;;;;;;;;;5018936;28;20407;-87
2024/01/18 07:08:59;;;;;;;0.88;0.73;;;;;;;;;;5018161;28;20025;-87
2024/01/18 07:11:24;;;;;;;0.68;0.68;;;;;;;;;;5023679;28;20030;-87
2024/01/18 07:13:50;;;;;;;1.38;1.27;;;;;;;;;;5018140;28;20041;-86
2024/01/18 07:16:15;;;;;;;0.57;0.57;;;;;;;;;;5018046;28;20037;-86
2024/01/18 07:18:40;;;;;;;0.77;0.77;;;;;;;;;;5016508;28;20021;-87
2024/01/18 07:21:06;;;;;;;1.75;1.27;;;;;;;;;;5018203;28;20101;-85
2024/01/18 07:23:31;;;;;;;1.75;1.65;;;;;;;;;;5017984;28;20091;-86
2024/01/18 07:25:56;;;;;;;1.00;1.00;;;;;;;;;;5019744;28;20078;-87
2024/01/18 07:28:22;;;;;;;1.15;1.05;;;;;;;;;;5017393;28;20030;-87
2024/01/18 07:30:47;;;;;;;0.80;0.80;;;;;;;;;;5018855;28;20021;-87
2024/01/18 07:33:12;;;;;;;1.40;1.30;;;;;;;;;;5017921;28;20034;-88
2024/01/18 07:35:38;;;;;;;1.27;1.15;;;;;;;;;;5020117;28;20030;-88
2024/01/18 07:38:03;;;;;;;1.98;1.77;;;;;;;;;;5004741;28;20038;-87
2024/01/18 07:40:29;;;;;;;1.08;1.08;;;;;;;;;;5006002;28;20044;-87
2024/01/18 07:42:54;;;;;;;5.18;1.58;;;;;;;;;;5018805;28;20045;-88
2024/01/18 07:45:20;;;;;;;1.92;1.73;;;;;;;;;;5020130;28;20022;-88
2024/01/18 07:47:46;;;;;;;1.90;1.67;;;;;;;;;;5020556;28;20116;-86
2024/01/18 07:50:12;;;;;;;1.13;1.02;;;;;;;;;;5023436;28;20029;-88
2024/01/18 07:52:38;;;;;;;1.60;1.50;;;;;;;;;;5015927;28;20032;-86
2024/01/18 07:55:05;;;;;;;0.90;0.82;;;;;;;;;;5022171;28;20029;-86
2024/01/18 07:57:31;;;;;;;0.60;0.60;;;;;;;;;;5023646;28;20018;-86
2024/01/18 07:59:56;;;;;;;0.70;0.70;;;;;;;;;;5021501;28;20526;-87
2024/01/18 08:02:21;;;;;;;1.55;1.42;;;;;;;;;;5025525;28;20563;-86
2024/01/18 08:04:47;;;;;;;1.95;1.42;;;;;;;;;;5022131;28;20026;-86
2024/01/18 08:07:12;;;;;;;0.55;0.55;;;;;;;;;;5018591;28;20021;-86
2024/01/18 08:09:38;;;;;;;5.78;2.25;;;;;;;;;;5022245;28;20055;-87
2024/01/18 08:12:04;;;;;;;0.22;0.22;;;;;;;;;;5022025;28;20040;-88
2024/01/18 08:14:30;;;;;;;1.45;0.93;;;;;;;;;;5022483;28;20452;-86
2024/01/18 08:16:55;;;;;;;0.73;0.73;;;;;;;;;;5022457;28;20550;-86
2024/01/18 08:19:21;;;;;;;1.90;1.50;;;;;;;;;;5020408;28;20029;-86
2024/01/18 08:21:46;;;;;;;1.33;1.20;;;;;;;;;;5022223;28;20504;-86
2024/01/18 08:24:12;;;;;;;0.63;0.63;;;;;;;;;;5024023;28;20025;-87
2024/01/18 08:26:38;;;;;;;0.20;0.20;;;;;;;;;;5019862;28;20022;-87
2024/01/18 08:29:03;;;;;;;0.65;0.65;;;;;;;;;;5019889;28;20084;-87
2024/01/18 08:31:29;;;;;;;0.90;0.90;;;;;;;;;;5019309;28;20025;-87
2024/01/18 08:33:54;;;;;;;1.85;1.10;;;;;;;;;;5016738;28;20030;-86
2024/01/18 08:36:20;;;;;;;0.40;0.40;;;;;;;;;;5017988;28;20026;-86
2024/01/18 08:38:45;;;;;;;0.65;0.65;;;;;;;;;;5018042;28;20495;-87
2024/01/18 08:41:10;;;;;;;1.67;1.05;;;;;;;;;;5016474;28;20069;-86
2024/01/18 08:43:36;;;;;;;2.08;1.50;;;;;;;;;;5016855;28;20034;-86
2024/01/18 08:46:06;;;;;;;1.70;0.63;;;;;;;;;;5016766;28;20029;-86
2024/01/18 08:48:32;;;;;;;14.40;1.63;;;;;;;;;;5017796;28;20625;-86
2024/01/18 08:50:57;;;;;;;1.70;1.60;;;;;;;;;;5018116;28;20109;-86
2024/01/18 08:53:22;;;;;;;0.60;0.60;;;;;;;;;;5016035;28;20032;-87
2024/01/18 08:55:48;;;;;;;0.65;0.65;;;;;;;;;;5017329;28;20042;-87
2024/01/18 08:58:13;;;;;;;0.40;0.40;;;;;;;;;;5015937;28;20032;-86
2024/01/18 09:00:38;;;;;;;1.17;0.82;;;;;;;;;;5017214;28;20042;-87
2024/01/18 09:03:04;;;;;;;3.60;2.65;;;;;;;;;;5021596;28;20052;-86
2024/01/18 09:05:30;;;;;;;0.30;0.30;;;;;;;;;;5019701;28;20041;-86
2024/01/18 09:07:57;;;;;;;2.75;1.90;;;;;;;;;;5014947;28;20021;-86
2024/01/18 09:10:22;;;;;;;6.47;1.33;;;;;;;;;;5014723;28;20498;-86
2024/01/18 09:12:48;;;;;;;0.40;0.40;;;;;;;;;;5007256;28;20018;-86
2024/01/18 09:15:14;;;;;;;2.55;1.38;;;;;;;;;;5019372;28;20034;-85
2024/01/18 09:17:41;;;;;;;0.65;0.65;;;;;;;;;;5020304;28;20117;-86
2024/01/18 09:20:07;;;;;;;5.90;4.15;;;;;;;;;;5019334;28;20022;-85
2024/01/18 09:22:32;;;;;;;2.47;2.05;;;;;;;;;;5019437;28;20053;-86
2024/01/18 09:24:58;;;;;;;0.85;0.85;;;;;;;;;;5018155;28;20029;-86
2024/01/18 09:27:24;;;;;;;1.95;1.00;;;;;;;;;;5001708;28;20447;-86
2024/01/18 09:29:49;;;;;;;3.70;1.58;;;;;;;;;;5019322;28;20022;-86
2024/01/18 09:32:15;;;;;;;0.85;0.85;;;;;;;;;;5018811;28;20431;-86
2024/01/18 09:34:41;;;;;;;0.68;0.68;;;;;;;;;;5020832;28;20404;-86
2024/01/18 09:37:06;;;;;;;2.83;1.85;;;;;;;;;;5035811;28;20037;-85
2024/01/18 09:39:31;;;;;;;2.08;1.05;;;;;;;;;;5026603;28;20639;-85
2024/01/18 09:41:57;;;;;;;0.68;0.68;;;;;;;;;;5019015;28;20025;-86
2024/01/18 09:44:26;;;;;;;0.60;0.60;;;;;;;;;;5035581;28;20021;-86
2024/01/18 09:46:53;;;;;;;0.30;0.30;;;;;;;;;;5031886;28;20017;-86
2024/01/18 09:49:18;;;;;;;0.85;0.85;;;;;;;;;;5039467;28;20118;-87
2024/01/18 09:51:43;;;;;;;0.77;0.73;;;;;;;;;;5036109;28;20030;-86
2024/01/18 09:54:09;;;;;;;0.28;0.28;;;;;;;;;;5021575;28;20022;-86
2024/01/18 09:56:38;;;;;;;0.35;0.35;;;;;;;;;;5024706;28;20033;-86
2024/01/18 09:59:04;;;;;;;1.67;0.80;;;;;;;;;;5019542;28;20061;-86
2024/01/18 10:01:31;;;;;;;0.75;0.75;;;;;;;;;;5019493;28;20025;-85
2024/01/18 10:03:56;;;;;;;1.25;0.80;;;;;;;;;;5020974;28;20064;-86
2024/01/18 10:06:22;;;;;;;0.95;0.88;;;;;;;;;;5019838;28;20026;-85
2024/01/18 10:08:51;;;;;;;0.40;0.40;;;;;;;;;;5020910;28;20648;-85
2024/01/18 10:11:16;;;;;;;0.20;0.20;;;;;;;;;;5019921;28;20036;-86
2024/01/18 10:13:51;;;;;;;1.08;0.95;;;;;;;;;;5018388;28;20053;-86
2024/01/18 10:16:32;;;;;;;0.47;0.47;;;;;;;;;;5015334;28;20030;-86
2024/01/18 10:19:02;;;;;;;0.73;0.63;;;;;;;;;;5017647;28;20018;-85
2024/01/18 10:21:28;;;;;;;0.45;0.45;;;;;;;;;;5022844;28;20117;-86
2024/01/18 10:23:54;;;;;;;1.17;0.85;;;;;;;;;;5026857;28;20032;-85
2024/01/18 10:26:26;;;;;;;2.05;1.25;;;;;;;;;;5018130;28;20104;-85
2024/01/18 10:28:52;;;;;;;0.60;0.60;;;;;;;;;;5016029;28;20403;-85
2024/01/18 10:31:17;;;;;;;0.50;0.50;;;;;;;;;;5016026;28;20045;-84
2024/01/18 10:33:45;;;;;;;1.20;1.20;;;;;;;;;;5016591;28;20037;-85
2024/01/18 10:36:13;;;;;;;0.52;0.52;;;;;;;;;;5019252;28;20547;-86
2024/01/18 10:38:56;;;;;;;0.63;0.63;;;;;;;;;;5020172;28;20030;-86
2024/01/18 10:41:29;;;;;;;0.60;0.60;;;;;;;;;;5020186;28;20436;-85
2024/01/18 10:43:59;;;;;;;0.30;0.30;;;;;;;;;;5019480;28;20026;-85
2024/01/18 10:46:24;;;;;;;0.30;0.30;;;;;;;;;;5019056;28;20043;-86
2024/01/18 10:48:51;;;;;;;0.20;0.20;;;;;;;;;;5020071;28;20053;-87
2024/01/18 10:51:17;;;;;;;0.70;0.70;;;;;;;;;;5017529;28;20092;-86
2024/01/18 10:53:43;;;;;;;0.30;0.30;;;;;;;;;;5018647;28;20030;-86
2024/01/18 10:56:08;;;;;;;1.30;1.20;;;;;;;;;;5016929;28;20349;-86
2024/01/18 10:58:34;;;;;;;0.50;0.50;;;;;;;;;;5024077;28;20044;-85
2024/01/18 11:01:00;;;;;;;0.73;0.73;;;;;;;;;;5019169;28;20022;-86
2024/01/18 11:03:26;;;;;;;0.30;0.30;;;;;;;;;;5016863;28;20025;-86
2024/01/18 11:05:52;;;;;;;0.68;0.68;;;;;;;;;;5017349;28;20068;-85
2024/01/18 11:08:18;;;;;;;0.32;0.32;;;;;;;;;;5016778;28;20077;-86
2024/01/18 11:10:44;;;;;;;0.63;0.63;;;;;;;;;;5016325;28;20080;-86
2024/01/18 11:13:11;;;;;;;3.25;0.65;;;;;;;;;;5015271;28;20516;-87
2024/01/18 11:15:39;;;;;;;1.20;1.15;;;;;;;;;;5015521;28;20388;-85
2024/01/18 11:18:09;;;;;;;0.40;0.40;;;;;;;;;;5018890;28;20034;-85
2024/01/18 11:20:54;;;;;;;0.35;0.35;;;;;;;;;;5022509;28;20033;-88
2024/01/18 11:23:23;;;;;;;0.40;0.40;;;;;;;;;;5019699;28;20145;-87
2024/01/18 11:25:48;;;;;;;0.55;0.55;;;;;;;;;;5025527;28;20076;-87
2024/01/18 11:28:27;;;;;;;0.47;0.47;;;;;;;;;;5024425;28;20033;-87
2024/01/18 11:30:53;;;;;;;0.98;0.98;;;;;;;;;;5025492;28;20079;-86
2024/01/18 11:33:20;;;;;;;0.63;0.63;;;;;;;;;;5027006;28;20050;-86
2024/01/18 11:35:47;;;;;;;0.40;0.40;;;;;;;;;;5025795;28;20041;-87
2024/01/18 11:38:19;;;;;;;1.55;1.13;;;;;;;;;;5027045;28;20073;-87
2024/01/18 11:40:49;;;;;;;0.68;0.68;;;;;;;;;;5025837;28;20124;-86
2024/01/18 11:43:14;;;;;;;0.55;0.55;;;;;;;;;;5025450;28;20305;-87
2024/01/18 11:45:44;;;;;;;0.47;0.47;;;;;;;;;;5026238;28;20029;-87
2024/01/18 11:48:10;;;;;;;0.73;0.73;;;;;;;;;;5026297;28;20038;-87
2024/01/18 11:50:35;;;;;;;0.90;0.90;;;;;;;;;;5024888;28;20105;-87
2024/01/18 11:53:01;;;;;;;0.63;0.63;;;;;;;;;;5021962;28;20034;-87
2024/01/18 11:55:30;;;;;;;1.10;1.10;;;;;;;;;;5031253;28;20022;-88
2024/01/18 11:57:56;;;;;;;2.05;1.60;;;;;;;;;;5032802;28;20014;-87
2024/01/18 12:00:22;;;;;;;0.60;0.60;;;;;;;;;;5036949;28;20014;-88
2024/01/18 12:02:47;;;;;;;0.40;0.40;;;;;;;;;;5026274;28;20345;-85
2024/01/18 12:05:14;;;;;;;0.85;0.85;;;;;;;;;;5022619;28;20084;-89
2024/01/18 12:07:40;;;;;;;0.65;0.65;;;;;;;;;;5019824;28;20049;-87
2024/01/18 12:10:06;;;;;;;1.10;1.10;;;;;;;;;;5020038;28;20499;-87
2024/01/18 12:12:32;;;;;;;1.30;1.20;;;;;;;;;;5018168;28;20034;-86
2024/01/18 12:14:59;;;;;;;0.90;0.90;;;;;;;;;;5016674;28;20028;-86
2024/01/18 12:17:25;;;;;;;1.50;1.27;;;;;;;;;;5016879;28;20040;-88
2024/01/18 12:19:51;;;;;;;0.35;0.35;;;;;;;;;;5017561;28;20022;-87
2024/01/18 12:22:18;;;;;;;1.95;1.85;;;;;;;;;;5017325;28;20036;-88
2024/01/18 12:24:44;;;;;;;1.17;1.17;;;;;;;;;;5017887;28;20069;-89
2024/01/18 12:27:11;;;;;;;0.85;0.85;;;;;;;;;;5015599;28;20080;-85
2024/01/18 12:29:38;;;;;;;1.92;1.77;;;;;;;;;;5016306;28;20056;-87
2024/01/18 12:32:04;;;;;;;1.88;1.77;;;;;;;;;;5017030;28;20025;-88
2024/01/18 12:34:32;;;;;;;1.67;1.58;;;;;;;;;;5021135;28;20033;-87
2024/01/18 12:36:58;;;;;;;1.10;1.05;;;;;;;;;;5025937;28;20025;-86
2024/01/18 12:39:24;;;;;;;1.48;1.40;;;;;;;;;;5029885;28;20040;-84
2024/01/18 12:41:51;;;;;;;0.57;0.57;;;;;;;;;;5027898;28;20026;-87
2024/01/18 12:44:17;;;;;;;2.03;1.75;;;;;;;;;;5025627;28;20033;-87
2024/01/18 12:46:45;;;;;;;1.95;1.85;;;;;;;;;;5025554;28;20018;-89
2024/01/18 12:49:11;;;;;;;0.50;0.50;;;;;;;;;;5028509;28;20133;-87
2024/01/18 12:51:37;;;;;;;0.47;0.47;;;;;;;;;;5026077;28;20487;-89
2024/01/18 12:54:03;;;;;;;1.80;1.70;;;;;;;;;;5025827;28;20089;-87
2024/01/18 12:56:29;;;;;;;4.55;3.67;;;;;;;;;;5026780;28;20029;-86
2024/01/18 12:58:55;;;;;;;1.27;1.20;;;;;;;;;;5024627;28;20026;-87
2024/01/18 13:01:28;;;;;;;2.25;2.05;;;;;;;;;;5026812;28;20033;-89
2024/01/18 13:04:20;;;;;;;1.90;0.82;;;;;;;;;;5022979;28;20124;-90
2024/01/18 13:06:46;;;;;;;1.73;1.63;;;;;;;;;;5029376;28;20045;-87
2024/01/18 13:09:12;;;;;;;3.53;2.50;;;;;;;;;;5029266;28;20029;-88
2024/01/18 13:11:38;;;;;;;2.60;2.40;;;;;;;;;;5022549;28;20040;-89
2024/01/18 13:14:06;;;;;;;1.10;1.02;;;;;;;;;;5021462;28;20205;-87
2024/01/18 13:16:32;;;;;;;0.73;0.73;;;;;;;;;;5022306;28;20403;-86
2024/01/18 13:19:05;;;;;;;2.25;2.05;;;;;;;;;;5018501;28;20056;-84
2024/01/18 13:21:32;;;;;;;2.58;2.38;;;;;;;;;;5020347;28;20029;-86
2024/01/18 13:23:58;;;;;;;2.78;1.83;;;;;;;;;;5018275;28;20025;-84
2024/01/18 13:26:24;;;;;;;1.20;1.20;;;;;;;;;;5035698;28;20045;-88
2024/01/18 13:28:49;;;;;;;1.30;1.17;;;;;;;;;;5021220;28;20022;-87
2024/01/18 13:31:15;;;;;;;3.17;2.45;;;;;;;;;;5023017;28;20041;-86
2024/01/18 13:33:40;;;;;;;0.95;0.93;;;;;;;;;;5020659;28;20117;-87
2024/01/18 13:36:06;;;;;;;0.98;0.98;;;;;;;;;;5020712;28;20056;-88
2024/01/18 13:38:33;;;;;;;3.00;2.70;;;;;;;;;;5021718;28;20069;-88
2024/01/18 13:40:59;;;;;;;2.65;1.52;;;;;;;;;;5021442;28;20112;-85
2024/01/18 13:43:25;;;;;;;0.77;0.77;;;;;;;;;;5021522;28;20065;-88
2024/01/18 13:45:50;;;;;;;1.00;1.00;;;;;;;;;;5021023;28;20496;-87
2024/01/18 13:48:16;;;;;;;0.98;0.98;;;;;;;;;;5019599;28;20025;-84
2024/01/18 13:50:43;;;;;;;1.33;1.27;;;;;;;;;;5018157;28;20083;-86
2024/01/18 13:53:09;;;;;;;1.92;1.73;;;;;;;;;;5020093;28;20060;-86
2024/01/18 13:55:35;;;;;;;1.30;1.20;;;;;;;;;;5019115;28;20029;-84
2024/01/18 13:58:00;;;;;;;1.65;1.33;;;;;;;;;;5011049;28;20022;-86
2024/01/18 14:00:26;;;;;;;0.98;0.98;;;;;;;;;;5019268;28;20030;-85
2024/01/18 14:02:51;;;;;;;2.55;2.35;;;;;;;;;;5020485;28;20037;-85
2024/01/18 14:05:16;;;;;;;2.92;1.85;;;;;;;;;;5019794;28;20415;-86
2024/01/18 14:07:42;;;;;;;1.48;0.82;;;;;;;;;;5021177;28;20021;-86
2024/01/18 14:10:07;;;;;;;1.45;1.33;;;;;;;;;;5022968;28;20087;-87
2024/01/18 14:12:33;;;;;;;2.00;1.90;;;;;;;;;;5022912;28;20048;-85
2024/01/18 14:14:59;;;;;;;1.08;1.08;;;;;;;;;;5025677;28;20025;-86
2024/01/18 14:17:24;;;;;;;2.05;1.80;;;;;;;;;;5028184;28;20105;-87
2024/01/18 14:19:50;;;;;;;1.15;0.65;;;;;;;;;;5025924;28;20060;-87
2024/01/18 14:22:15;;;;;;;1.15;0.75;;;;;;;;;;5023655;28;20045;-85
2024/01/18 14:24:41;;;;;;;3.80;2.40;;;;;;;;;;5018633;28;20061;-86
2024/01/18 14:27:07;;;;;;;3.28;1.52;;;;;;;;;;5018307;28;20482;-85
2024/01/18 14:29:32;;;;;;;0.85;0.85;;;;;;;;;;5018509;28;20026;-85
2024/01/18 14:31:58;;;;;;;1.75;0.70;;;;;;;;;;5018924;28;20029;-87
2024/01/18 14:34:23;;;;;;;3.80;2.42;;;;;;;;;;5018910;28;20025;-87
2024/01/18 14:36:49;;;;;;;1.13;1.13;;;;;;;;;;5017545;28;20030;-84